createdAt,value
2022-07-25T00:00:53.735Z,64.61
2022-07-25T00:01:53.817Z,64.71
2022-07-25T00:02:53.715Z,64.90
2022-07-25T00:03:53.753Z,64.81
2022-07-25T00:04:53.768Z,64.71
2022-07-25T00:05:53.665Z,64.90
2022-07-25T00:06:53.742Z,64.61
2022-07-25T00:07:53.650Z,64.81
2022-07-25T00:08:53.678Z,65.23
2022-07-25T00:09:53.620Z,65.34
2022-07-25T00:10:53.622Z,65.14
2022-07-25T00:11:53.605Z,64.94
2022-07-25T00:12:53.585Z,65.04
2022-07-25T00:13:53.566Z,65.04
2022-07-25T00:14:53.556Z,65.14
2022-07-25T00:15:53.572Z,65.04
2022-07-25T00:16:53.541Z,65.44
2022-07-25T00:17:53.534Z,65.34
2022-07-25T00:18:53.593Z,65.53
2022-07-25T00:19:53.491Z,65.44
2022-07-25T00:20:53.497Z,65.64
2022-07-25T00:21:53.476Z,65.34
2022-07-25T00:22:53.489Z,65.34
2022-07-25T00:23:53.482Z,65.47
2022-07-25T00:24:53.445Z,65.67
2022-07-25T00:25:53.500Z,65.67
2022-07-25T00:26:53.447Z,65.77
2022-07-25T00:27:53.386Z,65.87
2022-07-25T00:28:53.381Z,66.06
2022-07-25T00:29:53.356Z,66.06
2022-07-25T00:30:53.517Z,66.06
2022-07-25T00:31:53.353Z,100.00
2022-07-25T00:32:53.344Z,66.36
2022-07-25T00:33:53.313Z,66.47
2022-07-25T00:34:53.311Z,66.60
2022-07-25T00:35:53.281Z,66.60
2022-07-25T00:36:53.289Z,66.60
2022-07-25T00:37:53.255Z,66.80
2022-07-25T00:38:53.245Z,66.70
2022-07-25T00:39:53.243Z,66.70
2022-07-25T00:40:54.560Z,66.80
2022-07-25T00:41:53.281Z,66.89
2022-07-25T00:42:53.195Z,67.00
2022-07-25T00:43:53.303Z,67.49
2022-07-25T00:44:53.210Z,67.00
2022-07-25T00:45:53.152Z,67.00
2022-07-25T00:46:53.231Z,67.19
2022-07-25T00:47:53.167Z,67.10
2022-07-25T00:48:53.223Z,67.10
2022-07-25T00:49:53.108Z,67.07
2022-07-25T00:50:53.091Z,67.07
2022-07-25T00:51:54.196Z,67.19
2022-07-25T00:52:53.129Z,67.19
2022-07-25T00:53:53.073Z,67.40
2022-07-25T00:54:53.040Z,67.40
2022-07-25T00:55:53.023Z,67.69
2022-07-25T00:56:53.105Z,67.40
2022-07-25T00:57:53.995Z,67.80
2022-07-25T00:58:53.048Z,67.60
2022-07-25T00:59:52.979Z,67.69
2022-07-25T01:00:52.967Z,67.69
2022-07-25T01:01:53.026Z,67.80
2022-07-25T01:02:52.971Z,67.90
2022-07-25T01:03:52.933Z,67.80
2022-07-25T01:04:52.918Z,67.80
2022-07-25T01:05:53.903Z,67.80
2022-07-25T01:06:52.902Z,67.80
2022-07-25T01:07:53.565Z,67.69
2022-07-25T01:08:53.060Z,67.80
2022-07-25T01:09:52.865Z,67.80
2022-07-25T01:10:52.916Z,67.99
2022-07-25T01:11:52.822Z,68.29
2022-07-25T01:12:52.831Z,68.29
2022-07-25T01:13:52.796Z,68.49
2022-07-25T01:14:52.789Z,68.49
2022-07-25T01:15:52.834Z,68.49
2022-07-25T01:16:52.777Z,68.29
2022-07-25T01:17:52.760Z,68.19
2022-07-25T01:18:52.743Z,68.29
2022-07-25T01:19:52.721Z,68.29
2022-07-25T01:20:52.712Z,68.29
2022-07-25T01:21:52.702Z,68.29
2022-07-25T01:22:52.697Z,68.19
2022-07-25T01:23:52.671Z,68.19
2022-07-25T01:24:52.669Z,68.29
2022-07-25T01:25:52.644Z,68.40
2022-07-25T01:26:52.638Z,100.00
2022-07-25T01:27:55.486Z,68.59
2022-07-25T01:28:52.608Z,68.59
2022-07-25T01:29:52.589Z,68.59
2022-07-25T01:30:52.654Z,68.59
2022-07-25T01:31:52.568Z,68.63
2022-07-25T01:32:52.562Z,68.73
2022-07-25T01:33:52.550Z,68.93
2022-07-25T01:34:52.542Z,68.82
2022-07-25T01:35:52.521Z,68.82
2022-07-25T01:36:52.513Z,68.93
2022-07-25T01:37:52.504Z,68.93
2022-07-25T01:38:54.173Z,69.02
2022-07-25T01:39:52.468Z,69.13
2022-07-25T01:40:52.463Z,69.23
2022-07-25T01:41:52.440Z,69.32
2022-07-25T01:42:52.426Z,69.32
2022-07-25T01:43:52.429Z,69.43
2022-07-25T01:44:52.436Z,69.53
2022-07-25T01:45:52.498Z,69.56
2022-07-25T01:46:52.389Z,69.56
2022-07-25T01:47:52.360Z,69.76
2022-07-25T01:48:52.431Z,69.76
2022-07-25T01:49:52.345Z,69.76
2022-07-25T01:50:52.325Z,69.76
2022-07-25T01:51:52.302Z,69.76
2022-07-25T01:52:52.306Z,69.96
2022-07-25T01:53:52.292Z,69.96
2022-07-25T01:54:52.270Z,70.06
2022-07-25T01:55:52.303Z,70.06
2022-07-25T01:56:52.245Z,70.16
2022-07-25T01:57:52.256Z,70.16
2022-07-25T01:58:52.239Z,70.26
2022-07-25T01:59:52.209Z,70.49
2022-07-25T02:00:52.196Z,70.59
2022-07-25T02:01:52.287Z,70.59
2022-07-25T02:02:52.167Z,70.69
2022-07-25T02:03:52.178Z,70.79
2022-07-25T02:04:52.227Z,70.89
2022-07-25T02:05:52.124Z,70.89
2022-07-25T02:06:52.115Z,71.09
2022-07-25T02:07:52.106Z,71.29
2022-07-25T02:08:52.098Z,100.00
2022-07-25T02:09:58.577Z,71.29
2022-07-25T02:10:52.066Z,71.29
2022-07-25T02:11:52.050Z,71.29
2022-07-25T02:12:52.035Z,71.29
2022-07-25T02:13:52.060Z,71.39
2022-07-25T02:14:52.013Z,71.29
2022-07-25T02:15:52.019Z,71.16
2022-07-25T02:16:52.053Z,100.00
2022-07-25T02:17:52.008Z,70.76
2022-07-25T02:18:51.987Z,70.56
2022-07-25T02:19:51.958Z,70.26
2022-07-25T02:20:51.943Z,70.16
2022-07-25T02:21:51.925Z,69.96
2022-07-25T02:22:51.916Z,70.06
2022-07-25T02:23:51.913Z,69.86
2022-07-25T02:24:51.881Z,70.06
2022-07-25T02:25:51.878Z,70.06
2022-07-25T02:26:51.863Z,70.26
2022-07-25T02:27:51.869Z,70.46
2022-07-25T02:28:51.858Z,70.36
2022-07-25T02:29:51.820Z,70.36
2022-07-25T02:30:51.935Z,70.16
2022-07-25T02:31:51.821Z,70.26
2022-07-25T02:32:51.788Z,70.26
2022-07-25T02:33:51.777Z,70.36
2022-07-25T02:34:51.773Z,70.49
2022-07-25T02:35:51.748Z,70.59
2022-07-25T02:36:51.743Z,70.69
2022-07-25T02:37:51.740Z,70.69
2022-07-25T02:38:51.699Z,70.79
2022-07-25T02:39:51.715Z,70.79
2022-07-25T02:40:51.681Z,70.89
2022-07-25T02:41:51.676Z,71.09
2022-07-25T02:42:51.651Z,71.33
2022-07-25T02:43:51.652Z,71.42
2022-07-25T02:44:51.629Z,71.42
2022-07-25T02:45:51.746Z,71.53
2022-07-25T02:46:51.634Z,71.62
2022-07-25T02:47:51.602Z,71.62
2022-07-25T02:48:51.621Z,71.53
2022-07-25T02:49:51.575Z,71.53
2022-07-25T02:50:51.544Z,71.62
2022-07-25T02:51:51.552Z,71.73
2022-07-25T02:52:51.526Z,71.92
2022-07-25T02:53:59.164Z,71.92
2022-07-25T02:54:51.514Z,72.13
2022-07-25T02:55:51.488Z,72.16
2022-07-25T02:56:51.472Z,72.16
2022-07-25T02:57:51.461Z,72.36
2022-07-25T02:58:51.440Z,72.46
2022-07-25T02:59:51.473Z,72.46
2022-07-25T03:00:51.445Z,72.56
2022-07-25T03:01:51.478Z,72.56
2022-07-25T03:02:51.393Z,72.46
2022-07-25T03:03:51.447Z,72.36
2022-07-25T03:04:51.371Z,72.36
2022-07-25T03:05:51.371Z,72.26
2022-07-25T03:06:51.366Z,72.23
2022-07-25T03:07:51.343Z,72.23
2022-07-25T03:08:51.313Z,72.03
2022-07-25T03:09:51.329Z,72.03
2022-07-25T03:10:51.292Z,71.92
2022-07-25T03:11:51.291Z,71.92
2022-07-25T03:12:51.285Z,71.92
2022-07-25T03:13:51.284Z,71.96
2022-07-25T03:14:51.255Z,72.16
2022-07-25T03:15:51.233Z,72.26
2022-07-25T03:16:51.244Z,72.46
2022-07-25T03:17:51.216Z,72.66
2022-07-25T03:18:51.198Z,72.76
2022-07-25T03:19:51.184Z,100.00
2022-07-25T03:20:51.169Z,72.86
2022-07-25T03:21:51.165Z,72.96
2022-07-25T03:22:51.148Z,72.86
2022-07-25T03:23:52.847Z,72.86
2022-07-25T03:24:51.119Z,72.86
2022-07-25T03:25:51.098Z,72.96
2022-07-25T03:26:51.095Z,72.96
2022-07-25T03:27:51.072Z,72.76
2022-07-25T03:28:51.069Z,72.86
2022-07-25T03:29:51.058Z,72.66
2022-07-25T03:30:51.036Z,72.56
2022-07-25T03:31:51.103Z,72.46
2022-07-25T03:32:51.008Z,72.46
2022-07-25T03:33:50.993Z,72.46
2022-07-25T03:34:50.985Z,72.53
2022-07-25T03:35:50.979Z,72.53
2022-07-25T03:36:50.965Z,72.23
2022-07-25T03:37:50.953Z,72.03
2022-07-25T03:38:50.945Z,71.92
2022-07-25T03:39:50.957Z,71.92
2022-07-25T03:40:50.907Z,71.83
2022-07-25T03:41:50.922Z,71.83
2022-07-25T03:42:50.884Z,71.83
2022-07-25T03:43:50.878Z,71.83
2022-07-25T03:44:50.894Z,71.92
2022-07-25T03:45:50.934Z,72.16
2022-07-25T03:46:50.825Z,72.16
2022-07-25T03:47:50.826Z,72.26
2022-07-25T03:48:50.847Z,72.36
2022-07-25T03:49:50.830Z,72.46
2022-07-25T03:50:50.785Z,72.46
2022-07-25T03:51:50.760Z,72.66
2022-07-25T03:52:50.749Z,72.76
2022-07-25T03:53:50.742Z,72.89
2022-07-25T03:54:50.731Z,73.00
2022-07-25T03:55:50.709Z,73.19
2022-07-25T03:56:50.703Z,73.30
2022-07-25T03:57:50.710Z,73.30
2022-07-25T03:58:50.672Z,73.39
2022-07-25T03:59:50.661Z,73.50
2022-07-25T04:00:50.706Z,73.60
2022-07-25T04:01:50.681Z,100.00
2022-07-25T04:02:50.677Z,73.60
2022-07-25T04:03:50.620Z,73.60
2022-07-25T04:04:50.590Z,73.60
2022-07-25T04:05:50.594Z,73.60
2022-07-25T04:06:50.584Z,73.50
2022-07-25T04:07:50.562Z,73.60
2022-07-25T04:08:50.556Z,73.60
2022-07-25T04:09:50.537Z,73.60
2022-07-25T04:10:50.529Z,73.60
2022-07-25T04:11:50.507Z,73.60
2022-07-25T04:12:50.509Z,73.70
2022-07-25T04:13:50.484Z,73.70
2022-07-25T04:14:50.463Z,73.70
2022-07-25T04:15:50.471Z,73.70
2022-07-25T04:16:50.480Z,73.60
2022-07-25T04:17:50.427Z,73.70
2022-07-25T04:18:50.429Z,100.00
2022-07-25T04:19:50.416Z,73.60
2022-07-25T04:20:50.395Z,73.39
2022-07-25T04:21:50.395Z,73.60
2022-07-25T04:22:50.393Z,73.39
2022-07-25T04:23:50.352Z,73.39
2022-07-25T04:24:50.351Z,73.39
2022-07-25T04:25:50.329Z,73.39
2022-07-25T04:26:50.318Z,73.36
2022-07-25T04:27:50.316Z,73.26
2022-07-25T04:28:50.301Z,73.36
2022-07-25T04:29:50.272Z,73.26
2022-07-25T04:30:50.287Z,73.16
2022-07-25T04:31:50.319Z,73.06
2022-07-25T04:32:50.242Z,72.96
2022-07-25T04:33:50.221Z,72.96
2022-07-25T04:34:50.223Z,72.96
2022-07-25T04:35:50.232Z,72.76
2022-07-25T04:36:50.180Z,100.00
2022-07-25T04:37:50.257Z,100.00
2022-07-25T04:38:50.162Z,73.16
2022-07-25T04:39:50.169Z,73.26
2022-07-25T04:40:50.151Z,73.26
2022-07-25T04:41:50.140Z,73.36
2022-07-25T04:42:50.101Z,72.86
2022-07-25T04:43:50.094Z,73.06
2022-07-25T04:44:50.178Z,73.06
2022-07-25T04:45:50.123Z,73.16
2022-07-25T04:46:50.065Z,72.96
2022-07-25T04:47:50.085Z,72.86
2022-07-25T04:48:50.111Z,72.86
2022-07-25T04:49:50.026Z,73.06
2022-07-25T04:50:50.009Z,73.06
2022-07-25T04:51:49.993Z,73.46
2022-07-25T04:52:49.991Z,73.06
2022-07-25T04:53:49.967Z,73.30
2022-07-25T04:54:49.965Z,73.80
2022-07-25T04:55:49.942Z,74.20
2022-07-25T04:56:49.987Z,74.50
2022-07-25T04:57:49.919Z,73.80
2022-07-25T04:58:49.941Z,74.00
2022-07-25T04:59:49.888Z,74.80
2022-07-25T05:00:49.946Z,74.40
2022-07-25T05:01:49.981Z,74.30
2022-07-25T05:02:49.842Z,74.40
2022-07-25T05:03:50.818Z,74.60
2022-07-25T05:04:52.186Z,74.30
2022-07-25T05:05:49.825Z,74.30
2022-07-25T05:06:49.792Z,73.66
2022-07-25T05:07:49.782Z,73.86
2022-07-25T05:08:49.765Z,73.56
2022-07-25T05:09:49.758Z,73.56
2022-07-25T05:10:49.742Z,73.56
2022-07-25T05:11:55.923Z,73.16
2022-07-25T05:12:49.717Z,73.26
2022-07-25T05:13:49.708Z,73.26
2022-07-25T05:14:49.691Z,73.26
2022-07-25T05:15:49.679Z,73.06
2022-07-25T05:16:49.722Z,72.86
2022-07-25T05:17:49.651Z,72.86
2022-07-25T05:18:49.641Z,72.96
2022-07-25T05:19:49.635Z,73.06
2022-07-25T05:20:49.615Z,72.83
2022-07-25T05:21:49.614Z,72.83
2022-07-25T05:22:49.589Z,100.00
2022-07-25T05:23:49.577Z,72.72
2022-07-25T05:24:49.566Z,72.42
2022-07-25T05:25:49.554Z,72.23
2022-07-25T05:26:49.546Z,72.09
2022-07-25T05:27:49.531Z,71.99
2022-07-25T05:28:49.513Z,71.89
2022-07-25T05:29:49.511Z,71.89
2022-07-25T05:30:49.485Z,71.59
2022-07-25T05:31:49.549Z,71.79
2022-07-25T05:32:49.458Z,71.99
2022-07-25T05:33:49.447Z,71.89
2022-07-25T05:34:49.439Z,71.69
2022-07-25T05:35:49.421Z,71.56
2022-07-25T05:36:49.431Z,71.36
2022-07-25T05:37:49.396Z,71.16
2022-07-25T05:38:49.381Z,70.76
2022-07-25T05:39:49.369Z,70.86
2022-07-25T05:40:49.354Z,70.76
2022-07-25T05:41:49.352Z,70.42
2022-07-25T05:42:49.332Z,70.23
2022-07-25T05:43:49.317Z,70.23
2022-07-25T05:44:49.302Z,69.93
2022-07-25T05:45:49.294Z,69.93
2022-07-25T05:46:49.318Z,69.82
2022-07-25T05:47:49.267Z,69.93
2022-07-25T05:48:49.292Z,70.03
2022-07-25T05:49:49.242Z,69.93
2022-07-25T05:50:49.228Z,69.82
2022-07-25T05:51:49.238Z,69.69
2022-07-25T05:52:49.200Z,69.59
2022-07-25T05:53:49.187Z,69.39
2022-07-25T05:54:49.173Z,69.29
2022-07-25T05:55:49.160Z,68.99
2022-07-25T05:56:49.177Z,68.99
2022-07-25T05:57:49.134Z,68.89
2022-07-25T05:58:49.123Z,69.29
2022-07-25T05:59:49.113Z,69.49
2022-07-25T06:00:49.106Z,69.09
2022-07-25T06:01:49.227Z,68.96
2022-07-25T06:02:49.190Z,68.89
2022-07-25T06:03:49.076Z,69.39
2022-07-25T06:04:49.042Z,69.39
2022-07-25T06:05:49.034Z,69.26
2022-07-25T06:06:49.026Z,69.26
2022-07-25T06:07:49.006Z,68.66
2022-07-25T06:08:48.991Z,69.16
2022-07-25T06:09:48.980Z,68.76
2022-07-25T06:10:48.963Z,68.96
2022-07-25T06:11:54.637Z,69.16
2022-07-25T06:12:48.943Z,68.66
2022-07-25T06:13:48.930Z,68.53
2022-07-25T06:14:48.911Z,68.33
2022-07-25T06:15:48.909Z,68.23
2022-07-25T06:16:49.000Z,68.13
2022-07-25T06:17:48.882Z,68.43
2022-07-25T06:18:48.883Z,68.63
2022-07-25T06:19:48.857Z,68.40
2022-07-25T06:20:48.848Z,68.00
2022-07-25T06:21:48.834Z,67.80
2022-07-25T06:22:48.813Z,67.50
2022-07-25T06:23:48.804Z,67.60
2022-07-25T06:24:48.788Z,67.77
2022-07-25T06:25:50.127Z,67.66
2022-07-25T06:26:48.767Z,67.47
2022-07-25T06:27:48.763Z,67.36
2022-07-25T06:28:48.738Z,66.57
2022-07-25T06:29:48.725Z,66.77
2022-07-25T06:30:48.726Z,66.64
2022-07-25T06:31:48.774Z,66.64
2022-07-25T06:32:48.688Z,66.53
2022-07-25T06:33:48.687Z,66.34
2022-07-25T06:34:48.659Z,65.64
2022-07-25T06:35:48.645Z,65.51
2022-07-25T06:36:48.647Z,65.71
2022-07-25T06:37:48.633Z,65.21
2022-07-25T06:38:48.610Z,65.81
2022-07-25T06:39:48.596Z,65.71
2022-07-25T06:40:48.584Z,65.81
2022-07-25T06:41:48.570Z,65.11
2022-07-25T06:42:48.563Z,65.01
2022-07-25T06:43:48.546Z,65.31
2022-07-25T06:44:48.533Z,65.18
2022-07-25T06:45:48.518Z,65.18
2022-07-25T06:46:48.533Z,100.00
2022-07-25T06:47:48.511Z,64.58
2022-07-25T06:48:48.556Z,64.78
2022-07-25T06:49:48.478Z,64.48
2022-07-25T06:50:48.458Z,64.36
2022-07-25T06:51:48.450Z,64.55
2022-07-25T06:52:48.445Z,64.06
2022-07-25T06:53:48.417Z,64.15
2022-07-25T06:54:48.408Z,64.06
2022-07-25T06:55:48.395Z,63.82
2022-07-25T06:56:48.386Z,63.73
2022-07-25T06:57:48.375Z,63.33
2022-07-25T06:58:48.356Z,63.73
2022-07-25T06:59:48.348Z,62.73
2022-07-25T07:00:48.351Z,62.83
2022-07-25T07:01:51.617Z,62.34
2022-07-25T07:02:48.322Z,62.10
2022-07-25T07:03:48.364Z,62.21
2022-07-25T07:04:48.282Z,61.91
2022-07-25T07:05:48.267Z,61.41
2022-07-25T07:06:48.256Z,60.91
2022-07-25T07:07:48.424Z,61.38
2022-07-25T07:08:48.234Z,61.28
2022-07-25T07:09:48.214Z,61.08
2022-07-25T07:10:48.208Z,60.88
2022-07-25T07:11:48.188Z,61.18
2022-07-25T07:12:48.188Z,60.78
2022-07-25T07:13:48.162Z,60.36
2022-07-25T07:14:48.149Z,60.26
2022-07-25T07:15:48.223Z,60.26
2022-07-25T07:16:48.126Z,60.26
2022-07-25T07:17:48.118Z,60.26
2022-07-25T07:18:49.485Z,60.26
2022-07-25T07:19:48.080Z,60.16
2022-07-25T07:20:48.076Z,60.26
2022-07-25T07:21:48.059Z,60.36
2022-07-25T07:22:48.063Z,60.43
2022-07-25T07:23:48.040Z,60.63
2022-07-25T07:24:48.237Z,60.63
2022-07-25T07:25:48.010Z,60.63
2022-07-25T07:26:47.996Z,60.13
2022-07-25T07:27:48.009Z,59.93
2022-07-25T07:28:47.970Z,60.10
2022-07-25T07:29:47.954Z,60.10
2022-07-25T07:31:47.996Z,59.80
2022-07-25T07:32:47.934Z,59.61
2022-07-25T07:33:47.933Z,59.61
2022-07-25T07:34:47.895Z,59.28
2022-07-25T07:35:47.882Z,59.48
2022-07-25T07:36:47.871Z,59.28
2022-07-25T07:37:47.878Z,59.08
2022-07-25T07:38:47.847Z,59.18
2022-07-25T07:39:47.830Z,59.38
2022-07-25T07:40:47.818Z,59.58
2022-07-25T07:41:47.804Z,59.58
2022-07-25T07:42:47.803Z,59.25
2022-07-25T07:43:47.781Z,58.65
2022-07-25T07:44:47.769Z,58.73
2022-07-25T07:45:47.752Z,58.73
2022-07-25T07:46:47.820Z,58.83
2022-07-25T07:47:47.743Z,58.73
2022-07-25T07:48:47.749Z,58.73
2022-07-25T07:49:50.368Z,58.83
2022-07-25T07:50:47.695Z,58.92
2022-07-25T07:51:47.676Z,58.73
2022-07-25T07:52:47.666Z,58.63
2022-07-25T07:53:47.666Z,58.23
2022-07-25T07:54:47.640Z,58.23
2022-07-25T07:55:47.627Z,58.03
2022-07-25T07:56:47.617Z,58.20
2022-07-25T07:57:47.605Z,58.20
2022-07-25T07:58:47.603Z,58.01
2022-07-25T07:59:47.583Z,58.01
2022-07-25T08:00:47.574Z,58.11
2022-07-25T08:01:47.585Z,58.20
2022-07-25T08:02:48.782Z,58.30
2022-07-25T08:03:47.557Z,57.90
2022-07-25T08:04:47.573Z,57.71
2022-07-25T08:05:47.509Z,57.71
2022-07-25T08:06:47.527Z,57.61
2022-07-25T08:07:47.499Z,57.48
2022-07-25T08:08:47.472Z,57.48
2022-07-25T08:09:47.454Z,57.58
2022-07-25T08:11:56.465Z,57.29
2022-07-25T08:12:57.449Z,56.99
2022-07-25T08:13:57.417Z,57.18
2022-07-25T08:14:57.407Z,57.18
2022-07-25T08:15:57.469Z,57.18
2022-07-25T08:16:57.376Z,56.69
2022-07-25T08:17:57.367Z,56.69
2022-07-25T08:18:57.381Z,56.37
2022-07-25T08:20:05.603Z,56.37
2022-07-25T08:20:57.339Z,56.27
2022-07-25T08:21:57.310Z,56.07
2022-07-25T08:22:57.385Z,55.38
2022-07-25T08:23:57.309Z,55.47
2022-07-25T08:24:57.318Z,55.15
2022-07-25T08:25:57.258Z,54.76
2022-07-25T08:26:57.252Z,54.56
2022-07-25T08:27:57.270Z,54.86
2022-07-25T08:29:17.698Z,54.06
2022-07-25T08:29:57.287Z,54.17
2022-07-25T08:30:57.283Z,54.17
2022-07-25T08:31:57.205Z,53.97
2022-07-25T08:32:57.178Z,53.77
2022-07-25T08:33:57.197Z,53.87
2022-07-25T08:34:57.230Z,53.97
2022-07-25T08:35:57.159Z,53.64
2022-07-25T08:36:57.123Z,53.45
2022-07-25T08:37:57.120Z,53.75
2022-07-25T08:38:57.120Z,53.64
2022-07-25T08:39:57.086Z,100.00
2022-07-25T08:40:57.106Z,53.03
2022-07-25T08:41:57.072Z,52.91
2022-07-25T08:42:57.113Z,52.61
2022-07-25T08:43:57.040Z,52.61
2022-07-25T08:44:57.037Z,52.41
2022-07-25T08:45:57.609Z,51.72
2022-07-25T08:46:57.072Z,51.79
2022-07-25T08:47:57.009Z,51.79
2022-07-25T08:48:57.052Z,51.30
2022-07-25T08:50:00.933Z,51.50
2022-07-25T08:50:56.991Z,51.30
2022-07-25T08:51:56.946Z,50.90
2022-07-25T08:53:23.088Z,50.88
2022-07-25T08:53:56.942Z,50.68
2022-07-25T08:54:56.926Z,50.29
2022-07-25T08:55:56.889Z,49.77
2022-07-25T08:56:56.886Z,49.77
2022-07-25T08:57:56.855Z,49.45
2022-07-25T08:58:56.855Z,49.75
2022-07-25T08:59:56.830Z,49.26
2022-07-25T09:00:56.827Z,49.48
2022-07-25T09:01:56.911Z,49.48
2022-07-25T09:02:56.840Z,49.77
2022-07-25T09:03:56.794Z,49.45
2022-07-25T09:04:56.769Z,49.55
2022-07-25T09:05:56.766Z,49.26
2022-07-25T09:06:56.756Z,48.96
2022-07-25T09:07:56.725Z,48.37
2022-07-25T09:08:56.729Z,48.47
2022-07-25T09:09:56.716Z,48.27
2022-07-25T09:10:56.694Z,48.37
2022-07-25T09:11:56.713Z,47.85
2022-07-25T09:12:56.688Z,47.66
2022-07-25T09:13:56.690Z,100.00
2022-07-25T09:14:56.666Z,46.75
2022-07-25T09:15:56.737Z,47.04
2022-07-25T09:16:56.630Z,46.75
2022-07-25T09:17:56.614Z,46.94
2022-07-25T09:18:56.597Z,46.75
2022-07-25T09:19:56.609Z,46.65
2022-07-25T09:20:56.584Z,46.25
2022-07-25T09:21:56.556Z,46.75
2022-07-25T09:22:56.560Z,46.84
2022-07-25T09:23:56.535Z,46.55
2022-07-25T09:24:56.560Z,45.94
2022-07-25T09:25:56.516Z,46.13
2022-07-25T09:26:56.510Z,46.03
2022-07-25T09:27:56.483Z,45.94
2022-07-25T09:28:56.479Z,46.13
2022-07-25T09:29:56.477Z,45.84
2022-07-25T09:30:56.537Z,46.03
2022-07-25T09:31:56.453Z,45.84
2022-07-25T09:32:56.433Z,45.45
2022-07-25T09:33:56.482Z,44.73
2022-07-25T09:34:56.437Z,43.65
2022-07-25T09:35:56.418Z,44.24
2022-07-25T09:36:56.396Z,44.05
2022-07-25T09:37:56.362Z,44.24
2022-07-25T09:38:56.373Z,43.55
2022-07-25T09:39:56.365Z,43.36
2022-07-25T09:40:56.345Z,43.46
2022-07-25T09:41:56.316Z,43.75
2022-07-25T09:42:56.325Z,43.95
2022-07-25T09:43:56.333Z,44.34
2022-07-25T09:44:56.296Z,44.44
2022-07-25T09:45:56.315Z,43.43
2022-07-25T09:46:56.251Z,43.24
2022-07-25T09:47:56.257Z,41.96
2022-07-25T09:48:56.316Z,42.25
2022-07-25T09:49:56.239Z,42.25
2022-07-25T09:50:56.202Z,42.45
2022-07-25T09:51:56.194Z,42.25
2022-07-25T09:52:56.181Z,42.16
2022-07-25T09:53:56.167Z,42.55
2022-07-25T09:54:56.165Z,42.94
2022-07-25T09:55:56.160Z,43.33
2022-07-25T09:56:56.126Z,43.63
2022-07-25T09:57:56.132Z,43.63
2022-07-25T09:58:56.113Z,42.33
2022-07-25T09:59:56.160Z,42.14
2022-07-25T10:00:56.131Z,100.00
2022-07-25T10:01:56.168Z,42.53
2022-07-25T10:02:56.103Z,42.63
2022-07-25T10:03:56.051Z,42.41
2022-07-25T10:04:56.073Z,42.21
2022-07-25T10:05:56.034Z,41.33
2022-07-25T10:06:56.017Z,41.92
2022-07-25T10:07:55.989Z,42.21
2022-07-25T10:08:55.989Z,42.41
2022-07-25T10:09:56.061Z,42.61
2022-07-25T10:10:55.961Z,41.92
2022-07-25T10:11:55.949Z,41.63
2022-07-25T10:12:55.935Z,41.53
2022-07-25T10:13:55.931Z,41.33
2022-07-25T10:14:55.897Z,41.03
2022-07-25T10:15:55.897Z,40.64
2022-07-25T10:16:55.977Z,40.64
2022-07-25T10:17:55.880Z,40.35
2022-07-25T10:18:55.855Z,40.72
2022-07-25T10:19:58.876Z,40.62
2022-07-25T10:20:55.842Z,40.72
2022-07-25T10:21:55.820Z,41.21
2022-07-25T10:22:57.326Z,41.11
2022-07-25T10:23:55.778Z,40.53
2022-07-25T10:24:55.778Z,40.72
2022-07-25T10:25:55.761Z,40.53
2022-07-25T10:26:55.764Z,40.62
2022-07-25T10:27:55.726Z,40.23
2022-07-25T10:28:55.745Z,40.41
2022-07-25T10:29:55.726Z,40.51
2022-07-25T10:30:55.781Z,40.41
2022-07-25T10:31:55.722Z,40.21
2022-07-25T10:32:55.682Z,40.31
2022-07-25T10:33:55.659Z,40.41
2022-07-25T10:34:55.637Z,40.51
2022-07-25T10:35:55.679Z,40.80
2022-07-25T10:36:55.608Z,40.90
2022-07-25T10:37:55.615Z,40.80
2022-07-25T10:38:55.583Z,40.51
2022-07-25T10:39:55.587Z,39.01
2022-07-25T10:40:55.588Z,38.72
2022-07-25T10:41:55.558Z,39.01
2022-07-25T10:42:55.545Z,39.22
2022-07-25T10:43:55.530Z,39.11
2022-07-25T10:44:55.546Z,39.01
2022-07-25T10:45:55.563Z,38.53
2022-07-25T10:46:55.484Z,38.41
2022-07-25T10:47:55.492Z,37.92
2022-07-25T10:48:55.503Z,37.43
2022-07-25T10:50:15.196Z,37.52
2022-07-25T10:50:56.813Z,37.13
2022-07-25T10:51:55.446Z,37.52
2022-07-25T10:52:55.429Z,37.41
2022-07-25T10:53:55.399Z,36.72
2022-07-25T10:54:55.395Z,35.55
2022-07-25T10:56:05.339Z,36.33
2022-07-25T10:56:55.390Z,35.85
2022-07-25T10:58:16.589Z,36.04
2022-07-25T10:58:55.347Z,34.84
2022-07-25T10:59:55.337Z,34.75
2022-07-25T11:00:55.385Z,35.44
2022-07-25T11:01:55.377Z,36.71
2022-07-25T11:02:55.380Z,38.47
2022-07-25T11:03:55.272Z,38.37
2022-07-25T11:04:55.270Z,38.08
2022-07-25T11:05:55.266Z,37.59
2022-07-25T11:06:55.235Z,100.00
2022-07-25T11:08:19.931Z,37.08
2022-07-25T11:08:55.223Z,36.10
2022-07-25T11:09:55.215Z,34.44
2022-07-25T11:10:55.195Z,33.85
2022-07-25T11:11:55.210Z,34.05
2022-07-25T11:12:55.175Z,33.56
2022-07-25T11:13:55.158Z,33.65
2022-07-25T11:14:55.250Z,33.75
2022-07-25T11:15:55.231Z,33.85
2022-07-25T11:16:55.287Z,100.00
2022-07-25T11:17:55.101Z,100.00
2022-07-25T11:18:55.098Z,33.67
2022-07-25T11:19:55.109Z,33.67
2022-07-25T11:20:55.092Z,33.58
2022-07-25T11:21:55.055Z,34.06
2022-07-25T11:22:55.036Z,32.87
2022-07-25T11:23:55.026Z,32.68
2022-07-25T11:24:55.013Z,32.68
2022-07-25T11:25:55.002Z,32.39
2022-07-25T11:26:54.993Z,32.29
2022-07-25T11:27:55.028Z,32.58
2022-07-25T11:28:54.964Z,32.48
2022-07-25T11:29:54.963Z,32.37
2022-07-25T11:30:54.958Z,32.37
2022-07-25T11:31:55.030Z,32.17
2022-07-25T11:32:54.926Z,31.39
2022-07-25T11:33:55.058Z,30.88
2022-07-25T11:34:54.976Z,30.98
2022-07-25T11:35:54.920Z,30.32
2022-07-25T11:36:54.881Z,30.61
2022-07-25T11:37:54.851Z,31.00
2022-07-25T11:38:54.842Z,30.71
2022-07-25T11:39:56.240Z,30.80
2022-07-25T11:40:54.834Z,100.00
2022-07-25T11:41:54.840Z,30.90
2022-07-25T11:42:54.809Z,30.80
2022-07-25T11:43:54.807Z,30.90
2022-07-25T11:44:54.766Z,31.01
2022-07-25T11:45:54.805Z,31.29
2022-07-25T11:46:54.756Z,31.00
2022-07-25T11:47:54.730Z,31.00
2022-07-25T11:48:54.803Z,30.72
2022-07-25T11:49:54.716Z,30.61
2022-07-25T11:50:54.712Z,30.61
2022-07-25T11:51:54.709Z,30.61
2022-07-25T11:52:54.784Z,30.90
2022-07-25T11:53:54.670Z,30.90
2022-07-25T11:54:54.658Z,30.71
2022-07-25T11:55:54.710Z,100.00
2022-07-25T11:56:54.648Z,100.00
2022-07-25T11:57:54.615Z,100.00
2022-07-25T11:58:54.595Z,100.00
2022-07-25T11:59:54.587Z,30.40
2022-07-25T12:00:54.623Z,30.30
2022-07-25T12:01:54.739Z,30.49
2022-07-25T12:02:54.816Z,30.40
2022-07-25T12:03:54.607Z,30.69
2022-07-25T12:04:54.543Z,30.79
2022-07-25T12:05:54.527Z,30.88
2022-07-25T12:06:54.532Z,30.88
2022-07-25T12:07:54.488Z,30.87
2022-07-25T12:08:54.475Z,30.48
2022-07-25T12:09:54.501Z,30.58
2022-07-25T12:10:54.458Z,30.58
2022-07-25T12:11:54.434Z,30.87
2022-07-25T12:12:54.676Z,30.68
2022-07-25T12:13:54.557Z,30.57
2022-07-25T12:14:54.418Z,30.27
2022-07-25T12:15:54.396Z,30.47
2022-07-25T12:16:54.563Z,30.66
2022-07-25T12:17:54.379Z,30.77
2022-07-25T12:18:54.364Z,30.97
2022-07-25T12:19:54.339Z,31.07
2022-07-25T12:20:54.319Z,30.97
2022-07-25T12:21:54.309Z,31.15
2022-07-25T12:22:54.308Z,31.15
2022-07-25T12:23:54.314Z,31.05
2022-07-25T12:24:54.272Z,30.86
2022-07-25T12:25:54.265Z,30.86
2022-07-25T12:26:54.311Z,30.86
2022-07-25T12:27:54.273Z,30.57
2022-07-25T12:28:54.248Z,30.66
2022-07-25T12:29:54.269Z,30.57
2022-07-25T12:30:56.644Z,30.66
2022-07-25T12:31:54.209Z,30.86
2022-07-25T12:32:54.192Z,30.96
2022-07-25T12:33:54.174Z,31.05
2022-07-25T12:34:54.165Z,31.15
2022-07-25T12:35:54.162Z,31.15
2022-07-25T12:36:54.145Z,31.05
2022-07-25T12:37:54.125Z,31.05
2022-07-25T12:38:54.154Z,31.15
2022-07-25T12:39:54.112Z,31.15
2022-07-25T12:40:54.085Z,31.15
2022-07-25T12:41:54.068Z,31.15
2022-07-25T12:42:54.124Z,31.23
2022-07-25T12:43:54.254Z,31.33
2022-07-25T12:44:54.039Z,100.00
2022-07-25T12:45:54.087Z,31.22
2022-07-25T12:46:54.025Z,31.12
2022-07-25T12:47:53.998Z,31.02
2022-07-25T12:48:54.091Z,31.02
2022-07-25T12:49:53.964Z,31.01
2022-07-25T12:50:53.955Z,31.10
2022-07-25T12:51:58.070Z,31.01
2022-07-25T12:52:53.991Z,100.00
2022-07-25T12:53:53.919Z,30.42